EmailTwitter


Observations de surface / Europe / LIRF (16242)

Régions: Québec | Canada | États-Unis | Europe | France | UK | Ailleurs
Station
Affichage
Infos & localisation pour LIRF (16242) | Aide pour décoder les METARs

Observations prises le 2017-08-23 à 17H20 UTC (LIRF)

Température: 25.0 Celsius

Point de rosée: 19.0 Celsius

Humidité relative: 69%

Indice Humidex: 32.

Vents: Ouest à 15 km/h ou 8 noeuds.

Pression au niveau moyen de la mer: 101.60 kilopascals.

Observation METAR:

LIRF 231720Z 28008KT CAVOK 25/19 Q1016 NOSIG=